createdAt,value
2023-01-25T00:01:08.661Z,99947.00
2023-01-25T00:04:15.165Z,99947.40
2023-01-25T00:07:21.339Z,99947.00
2023-01-25T00:10:27.780Z,99956.00
2023-01-25T00:13:34.063Z,99951.00
2023-01-25T00:16:40.731Z,99953.80
2023-01-25T00:19:47.171Z,99954.60
2023-01-25T00:22:54.836Z,99960.00
2023-01-25T00:26:01.582Z,99960.40
2023-01-25T00:29:08.126Z,99964.40
2023-01-25T00:32:44.443Z,99960.40
2023-01-25T00:35:52.181Z,99965.40
2023-01-25T00:39:00.377Z,99961.00
2023-01-25T00:42:07.499Z,99959.60
2023-01-25T00:45:15.194Z,99962.60
2023-01-25T00:48:21.844Z,99959.60
2023-01-25T00:51:28.625Z,99963.20
2023-01-25T00:54:35.021Z,99964.40
2023-01-25T00:57:41.444Z,99967.40
2023-01-25T01:00:48.040Z,99970.40
2023-01-25T01:03:56.224Z,99972.00
2023-01-25T01:07:02.690Z,99961.60
2023-01-25T01:10:10.718Z,99962.20
2023-01-25T01:13:16.868Z,99963.40
2023-01-25T01:16:23.010Z,99965.60
2023-01-25T01:19:29.198Z,99969.00
2023-01-25T01:22:35.590Z,99961.00
2023-01-25T01:25:41.737Z,99964.60
2023-01-25T01:28:49.270Z,99962.60
2023-01-25T01:31:56.511Z,99966.40
2023-01-25T01:35:02.798Z,99968.60
2023-01-25T01:38:09.330Z,99966.60
2023-01-25T01:41:16.600Z,99964.80
2023-01-25T01:44:37.578Z,99964.20
2023-01-25T01:47:49.013Z,99959.80
2023-01-25T01:50:58.655Z,99961.80
2023-01-25T01:54:09.569Z,99960.00
2023-01-25T01:57:19.443Z,99959.00
2023-01-25T02:00:29.936Z,99951.00
2023-01-25T02:03:37.018Z,99948.20
2023-01-25T02:06:48.419Z,99946.80
2023-01-25T02:09:54.904Z,99954.00
2023-01-25T02:13:02.375Z,99957.80
2023-01-25T02:16:15.446Z,99953.00
2023-01-25T02:19:34.522Z,99952.40
2023-01-25T02:22:45.870Z,99957.20
2023-01-25T02:25:52.687Z,99957.20
2023-01-25T02:29:03.629Z,99952.80
2023-01-25T02:32:10.255Z,99950.20
2023-01-25T02:35:23.080Z,99944.00
2023-01-25T02:38:30.639Z,99940.60
2023-01-25T02:41:39.085Z,99939.80
2023-01-25T02:44:45.994Z,99934.80
2023-01-25T02:47:52.174Z,99929.00
2023-01-25T02:50:58.635Z,99926.20
2023-01-25T02:54:06.849Z,99929.40
2023-01-25T02:57:13.105Z,99924.00
2023-01-25T03:00:19.975Z,99917.20
2023-01-25T03:03:26.732Z,99919.80
2023-01-25T03:06:32.898Z,99908.60
2023-01-25T03:09:39.076Z,99909.80
2023-01-25T03:12:45.157Z,99914.80
2023-01-25T03:15:51.682Z,99909.80
2023-01-25T03:18:58.928Z,99904.80
2023-01-25T03:22:07.043Z,99908.20
2023-01-25T03:25:13.423Z,99908.80
2023-01-25T03:28:19.958Z,99908.80
2023-01-25T03:31:26.391Z,99910.00
2023-01-25T03:34:32.925Z,99915.80
2023-01-25T03:37:38.968Z,99911.00
2023-01-25T03:40:45.066Z,99917.60
2023-01-25T03:43:51.625Z,99916.60
2023-01-25T03:46:58.011Z,99917.20
2023-01-25T03:50:04.615Z,99919.00
2023-01-25T03:53:29.404Z,99916.40
2023-01-25T03:56:35.758Z,99915.20
2023-01-25T03:59:42.336Z,99908.20
2023-01-25T04:02:48.578Z,99906.60
2023-01-25T04:05:56.457Z,99903.60
2023-01-25T04:09:02.610Z,99898.80
2023-01-25T04:12:09.327Z,99901.20
2023-01-25T04:15:15.672Z,99898.20
2023-01-25T04:18:22.645Z,99903.00
2023-01-25T04:21:29.007Z,99907.80
2023-01-25T04:24:35.882Z,99912.20
2023-01-25T04:27:42.086Z,99910.00
2023-01-25T04:30:48.380Z,99909.00
2023-01-25T04:33:54.712Z,99905.60
2023-01-25T04:37:00.940Z,99906.60
2023-01-25T04:40:08.768Z,99908.60
2023-01-25T04:43:15.990Z,99905.00
2023-01-25T04:46:22.182Z,99903.00
2023-01-25T04:49:28.440Z,99901.60
2023-01-25T04:52:34.678Z,99903.20
2023-01-25T04:55:41.020Z,99900.60
2023-01-25T04:58:47.276Z,99898.20
2023-01-25T05:01:54.302Z,99896.80
2023-01-25T05:05:00.591Z,99886.20
2023-01-25T05:08:07.569Z,99890.80
2023-01-25T05:11:14.536Z,99895.40
2023-01-25T05:14:20.867Z,99894.00
2023-01-25T05:17:27.119Z,99894.20
2023-01-25T05:20:33.315Z,99896.20
2023-01-25T05:23:39.597Z,99897.40
2023-01-25T05:27:15.110Z,99898.80
2023-01-25T05:30:21.683Z,99900.00
2023-01-25T05:33:27.947Z,99903.00
2023-01-25T05:36:34.293Z,99913.20
2023-01-25T05:39:41.651Z,99917.20
2023-01-25T05:42:54.729Z,99918.00
2023-01-25T05:46:02.861Z,99918.00
2023-01-25T05:49:09.248Z,99916.40
2023-01-25T05:52:17.611Z,99916.00
2023-01-25T05:55:23.861Z,99914.40
2023-01-25T05:58:30.300Z,99917.20
2023-01-25T06:01:36.963Z,99915.00
2023-01-25T06:04:43.463Z,99915.20
2023-01-25T06:07:50.119Z,99921.20
2023-01-25T06:10:56.667Z,99926.80
2023-01-25T06:14:03.231Z,99927.60
2023-01-25T06:17:09.933Z,99926.00
2023-01-25T06:20:16.933Z,99928.00
2023-01-25T06:23:23.282Z,99927.80
2023-01-25T06:26:29.600Z,99927.40
2023-01-25T06:29:35.957Z,99928.40
2023-01-25T06:32:42.549Z,99928.20
2023-01-25T06:35:49.120Z,99930.00
2023-01-25T06:38:55.667Z,99932.60
2023-01-25T06:42:01.927Z,99937.60
2023-01-25T06:45:10.331Z,99942.00
2023-01-25T06:48:17.310Z,99944.40
2023-01-25T06:51:23.636Z,99946.00
2023-01-25T06:54:29.771Z,99941.60
2023-01-25T06:57:36.225Z,99944.20
2023-01-25T07:00:43.037Z,99942.20
2023-01-25T07:03:51.560Z,99948.00
2023-01-25T07:06:58.445Z,99949.20
2023-01-25T07:10:04.869Z,99944.80
2023-01-25T07:13:11.168Z,99948.00
2023-01-25T07:16:20.751Z,99944.40
2023-01-25T07:19:27.104Z,99941.00
2023-01-25T07:22:35.249Z,99937.20
2023-01-25T07:25:46.521Z,99942.80
2023-01-25T07:28:53.680Z,99941.80
2023-01-25T07:31:59.990Z,99941.40
2023-01-25T07:35:07.052Z,99939.60
2023-01-25T07:38:14.774Z,99936.60
2023-01-25T07:41:21.261Z,99939.80
2023-01-25T07:44:27.518Z,99944.60
2023-01-25T07:47:34.737Z,99944.80
2023-01-25T07:50:42.654Z,99941.20
2023-01-25T07:53:49.570Z,99941.00
2023-01-25T07:56:55.774Z,99937.20
2023-01-25T08:00:01.999Z,99938.80
2023-01-25T08:03:10.469Z,99939.00
2023-01-25T08:06:18.422Z,99932.80
2023-01-25T08:09:24.971Z,99929.40
2023-01-25T08:12:31.404Z,99931.00
2023-01-25T08:15:41.168Z,99924.60
2023-01-25T08:18:50.580Z,99925.40
2023-01-25T08:21:57.217Z,99921.00
2023-01-25T08:25:03.483Z,99917.00
2023-01-25T08:28:10.406Z,99920.80
2023-01-25T08:31:18.780Z,99921.20
2023-01-25T08:34:25.160Z,99919.20
2023-01-25T08:37:31.509Z,99916.20
2023-01-25T08:40:38.603Z,99916.40
2023-01-25T08:43:45.095Z,99914.80
2023-01-25T08:46:52.214Z,99910.80
2023-01-25T08:49:58.312Z,99907.80
2023-01-25T08:53:05.765Z,99903.40
2023-01-25T08:56:14.719Z,99896.00
2023-01-25T08:59:21.376Z,99896.20
2023-01-25T09:02:27.560Z,99899.40
2023-01-25T09:05:35.066Z,99897.00
2023-01-25T09:08:41.446Z,99894.40
2023-01-25T09:11:48.405Z,99905.00
2023-01-25T09:14:54.771Z,99898.00
2023-01-25T09:18:01.743Z,99901.00
2023-01-25T09:21:10.938Z,99900.40
2023-01-25T09:24:17.819Z,99901.20
2023-01-25T09:27:24.565Z,99895.80
2023-01-25T09:30:45.586Z,99895.40
2023-01-25T09:33:53.792Z,99898.00
2023-01-25T09:37:00.179Z,99887.80
2023-01-25T09:40:08.680Z,99889.60
2023-01-25T09:43:22.400Z,99884.80
2023-01-25T09:46:40.048Z,99883.40
2023-01-25T09:50:02.060Z,99880.80
2023-01-25T09:53:27.279Z,99878.00
2023-01-25T09:56:38.603Z,99873.60
2023-01-25T09:59:45.687Z,99873.00
2023-01-25T10:02:57.312Z,99868.00
2023-01-25T10:06:04.952Z,99860.40
2023-01-25T10:09:33.335Z,99860.80
2023-01-25T10:12:40.589Z,99854.60
2023-01-25T10:15:52.364Z,99844.80
2023-01-25T10:19:14.994Z,99842.00
2023-01-25T10:22:25.079Z,99843.20
2023-01-25T10:25:41.937Z,99833.60
2023-01-25T10:28:55.034Z,99831.80
2023-01-25T10:32:14.265Z,99831.20
2023-01-25T10:35:34.787Z,99826.40
2023-01-25T10:38:44.448Z,99821.20
2023-01-25T10:41:56.833Z,99826.00
2023-01-25T10:45:03.327Z,99819.60
2023-01-25T10:48:17.597Z,99817.20
2023-01-25T10:51:35.496Z,99809.40
2023-01-25T10:54:42.058Z,99806.80
2023-01-25T10:57:51.581Z,99809.00
2023-01-25T11:00:58.464Z,99801.40
2023-01-25T11:04:23.383Z,99802.80
2023-01-25T11:07:31.331Z,99795.20
2023-01-25T11:10:39.838Z,99792.40
2023-01-25T11:13:46.669Z,99785.20
2023-01-25T11:16:53.120Z,99777.60
2023-01-25T11:20:19.864Z,99776.40
2023-01-25T11:23:27.861Z,99768.40
2023-01-25T11:26:36.583Z,99770.20
2023-01-25T11:29:42.705Z,99768.20
2023-01-25T11:32:49.308Z,99765.40
2023-01-25T11:36:17.469Z,99756.40
2023-01-25T11:39:36.952Z,99744.60
2023-01-25T11:42:51.490Z,99735.60
2023-01-25T11:46:09.861Z,99727.60
2023-01-25T11:49:26.234Z,99721.00
2023-01-25T11:52:42.149Z,99711.80
2023-01-25T11:55:55.970Z,99703.20
2023-01-25T11:59:19.875Z,99694.80
2023-01-25T12:02:50.781Z,99692.00
2023-01-25T12:06:03.791Z,99682.40
2023-01-25T12:09:34.253Z,99682.00
2023-01-25T12:12:50.649Z,99672.20
2023-01-25T12:16:21.956Z,99670.40
2023-01-25T12:19:40.841Z,99666.20
2023-01-25T12:23:04.318Z,99658.80
2023-01-25T12:26:22.043Z,99659.00
2023-01-25T12:29:36.256Z,99653.20
2023-01-25T12:32:47.404Z,99654.80
2023-01-25T12:35:59.264Z,99657.40
2023-01-25T12:39:08.672Z,99652.60
2023-01-25T12:42:19.974Z,99660.60
2023-01-25T12:45:29.493Z,99656.20
2023-01-25T12:48:41.843Z,99656.80
2023-01-25T12:51:49.860Z,99652.40
2023-01-25T12:54:58.444Z,99647.60
2023-01-25T12:58:13.471Z,99643.40
2023-01-25T13:01:27.423Z,99634.40
2023-01-25T13:04:55.070Z,99631.60
2023-01-25T13:08:17.775Z,99630.40
2023-01-25T13:11:35.198Z,99620.80
2023-01-25T13:14:42.807Z,99625.20
2023-01-25T13:17:49.209Z,99620.20
2023-01-25T13:20:56.866Z,99619.00
2023-01-25T13:24:21.408Z,99613.20
2023-01-25T13:27:34.783Z,99612.20
2023-01-25T13:30:56.016Z,99609.80
2023-01-25T13:34:03.503Z,99607.20
2023-01-25T13:37:20.145Z,99605.80
2023-01-25T13:40:35.125Z,99601.60
2023-01-25T13:43:43.628Z,99601.40
2023-01-25T13:46:49.892Z,99595.40
2023-01-25T13:50:05.314Z,99598.60
2023-01-25T13:53:23.321Z,99601.80
2023-01-25T13:56:32.693Z,99600.40
2023-01-25T13:59:39.246Z,99594.20
2023-01-25T14:02:47.661Z,99592.40
2023-01-25T14:05:56.636Z,99590.60
2023-01-25T14:09:08.166Z,99587.80
2023-01-25T14:12:32.031Z,99594.00
2023-01-25T14:15:39.070Z,99587.40
2023-01-25T14:18:45.379Z,99592.20
2023-01-25T14:21:52.245Z,99591.20
2023-01-25T14:25:15.505Z,99585.00
2023-01-25T14:28:22.323Z,99592.00
2023-01-25T14:31:33.313Z,99584.00
2023-01-25T14:34:40.002Z,99580.80
2023-01-25T14:37:47.697Z,99580.40
2023-01-25T14:40:58.200Z,99572.60
2023-01-25T14:44:06.500Z,99578.60
2023-01-25T14:47:31.084Z,99577.80
2023-01-25T14:50:39.524Z,99570.00
2023-01-25T14:53:49.025Z,99573.60
2023-01-25T14:56:57.363Z,99576.60
2023-01-25T15:00:05.159Z,99563.00
2023-01-25T15:03:18.980Z,99563.00
2023-01-25T15:06:26.049Z,99568.40
2023-01-25T15:10:02.276Z,99566.20
2023-01-25T15:13:23.704Z,99566.00
2023-01-25T15:16:37.714Z,99561.80
2023-01-25T15:19:55.429Z,99568.40
2023-01-25T15:23:05.279Z,99567.60
2023-01-25T15:26:20.254Z,99565.80
2023-01-25T15:29:27.806Z,99565.60
2023-01-25T15:32:34.351Z,99564.40
2023-01-25T15:35:40.701Z,99563.80
2023-01-25T15:38:47.668Z,99561.40
2023-01-25T15:41:54.006Z,99566.80
2023-01-25T15:45:02.609Z,99567.60
2023-01-25T15:48:11.546Z,99568.40
2023-01-25T15:51:18.597Z,99563.00
2023-01-25T15:54:25.390Z,99555.40
2023-01-25T15:57:34.945Z,99556.20
2023-01-25T16:00:42.186Z,99556.20
2023-01-25T16:03:48.477Z,99555.80
2023-01-25T16:06:55.881Z,99561.80
2023-01-25T16:10:02.672Z,99560.80
2023-01-25T16:13:10.893Z,99555.20
2023-01-25T16:16:21.482Z,99553.60
2023-01-25T16:19:28.116Z,99552.60
2023-01-25T16:22:34.383Z,99547.80
2023-01-25T16:25:40.917Z,99547.40
2023-01-25T16:28:47.231Z,99550.20
2023-01-25T16:31:54.348Z,99545.20
2023-01-25T16:35:00.792Z,99547.40
2023-01-25T16:38:07.504Z,99546.60
2023-01-25T16:41:15.435Z,99549.60
2023-01-25T16:44:21.803Z,99539.00
2023-01-25T16:47:28.210Z,99543.20
2023-01-25T16:50:35.571Z,99543.60
2023-01-25T16:53:41.953Z,99546.40
2023-01-25T16:56:48.712Z,99538.00
2023-01-25T16:59:55.521Z,99541.80
2023-01-25T17:03:02.149Z,99537.80
2023-01-25T17:06:09.789Z,99540.00
2023-01-25T17:09:25.149Z,99534.40
2023-01-25T17:12:32.448Z,99535.20
2023-01-25T17:15:38.651Z,99534.20
2023-01-25T17:18:45.711Z,99529.00
2023-01-25T17:21:52.534Z,99531.40
2023-01-25T17:24:58.971Z,99527.00
2023-01-25T17:28:05.223Z,99525.00
2023-01-25T17:31:18.816Z,99523.60
2023-01-25T17:34:25.542Z,99522.20
2023-01-25T17:37:31.901Z,99517.80
2023-01-25T17:40:38.725Z,99512.80
2023-01-25T17:43:45.356Z,99506.20
2023-01-25T17:46:52.065Z,99505.20
2023-01-25T17:49:58.938Z,99501.00
2023-01-25T17:53:05.890Z,99498.60
2023-01-25T17:56:13.857Z,99484.40
2023-01-25T17:59:19.982Z,99484.80
2023-01-25T18:02:26.416Z,99482.00
2023-01-25T18:05:32.792Z,99479.60
2023-01-25T18:08:40.851Z,99484.80
2023-01-25T18:11:48.134Z,99486.40
2023-01-25T18:14:54.921Z,99491.00
2023-01-25T18:18:01.779Z,99490.80
2023-01-25T18:21:10.997Z,99487.40
2023-01-25T18:24:34.770Z,99480.20
2023-01-25T18:27:41.387Z,99474.80
2023-01-25T18:30:55.284Z,99472.20
2023-01-25T18:34:01.991Z,99464.80
2023-01-25T18:37:18.070Z,99460.20
2023-01-25T18:40:25.412Z,99455.40
2023-01-25T18:43:31.878Z,99448.80
2023-01-25T18:46:40.555Z,99450.40
2023-01-25T18:49:48.054Z,99451.20
2023-01-25T18:52:56.407Z,99446.60
2023-01-25T18:56:05.339Z,99441.20
2023-01-25T18:59:11.942Z,99439.40
2023-01-25T19:02:19.784Z,99428.80
2023-01-25T19:05:31.173Z,99424.80
2023-01-25T19:08:41.763Z,99423.00
2023-01-25T19:11:48.426Z,99424.80
2023-01-25T19:14:55.449Z,99420.80
2023-01-25T19:18:02.175Z,99419.20
2023-01-25T19:21:12.394Z,99412.40
2023-01-25T19:24:21.001Z,99407.20
2023-01-25T19:27:29.458Z,99400.60
2023-01-25T19:30:35.784Z,99394.00
2023-01-25T19:33:43.964Z,99395.60
2023-01-25T19:36:58.733Z,99393.00
2023-01-25T19:40:12.967Z,99387.00
2023-01-25T19:43:19.475Z,99395.20
2023-01-25T19:46:27.436Z,99387.00
2023-01-25T19:49:34.288Z,99385.00
2023-01-25T19:52:41.627Z,99385.00
2023-01-25T19:55:48.232Z,99376.20
2023-01-25T19:58:55.258Z,99377.80
2023-01-25T20:02:01.796Z,99373.00
2023-01-25T20:05:09.569Z,99377.40
2023-01-25T20:08:16.546Z,99377.80
2023-01-25T20:11:24.668Z,99373.40
2023-01-25T20:14:31.071Z,99371.00
2023-01-25T20:17:38.016Z,99367.40
2023-01-25T20:20:44.680Z,99367.80
2023-01-25T20:23:53.408Z,99367.60
2023-01-25T20:27:00.143Z,99368.20
2023-01-25T20:30:07.820Z,99364.40
2023-01-25T20:33:14.381Z,99359.80
2023-01-25T20:36:20.756Z,99358.60
2023-01-25T20:39:27.267Z,99354.20
2023-01-25T20:42:33.713Z,99349.60
2023-01-25T20:45:40.162Z,99344.20
2023-01-25T20:48:46.961Z,99344.00
2023-01-25T20:51:53.442Z,99340.40
2023-01-25T20:55:00.005Z,99340.20
2023-01-25T20:58:06.447Z,99335.00
2023-01-25T21:01:17.456Z,99336.60
2023-01-25T21:04:24.060Z,99331.00
2023-01-25T21:07:30.319Z,99329.00
2023-01-25T21:10:36.724Z,99321.80
2023-01-25T21:13:43.099Z,99323.60
2023-01-25T21:16:49.407Z,99321.60
2023-01-25T21:19:58.060Z,99318.20
2023-01-25T21:23:04.645Z,99316.80
2023-01-25T21:26:15.758Z,99320.00
2023-01-25T21:29:22.503Z,99315.60
2023-01-25T21:32:29.998Z,99315.20
2023-01-25T21:35:38.414Z,99306.80
2023-01-25T21:38:47.603Z,99303.80
2023-01-25T21:41:54.271Z,99297.40
2023-01-25T21:45:18.237Z,99302.80
2023-01-25T21:48:38.631Z,99301.20
2023-01-25T21:51:49.810Z,99301.20
2023-01-25T21:54:56.620Z,99291.40
2023-01-25T21:58:03.185Z,99291.20
2023-01-25T22:01:10.235Z,99291.20
2023-01-25T22:04:17.611Z,99289.00
2023-01-25T22:07:24.591Z,99282.40
2023-01-25T22:10:30.812Z,99272.80
2023-01-25T22:13:37.476Z,99273.60
2023-01-25T22:16:43.888Z,99272.60
2023-01-25T22:19:50.573Z,99268.00
2023-01-25T22:22:57.014Z,99265.20
2023-01-25T22:26:10.498Z,99263.00
2023-01-25T22:29:17.515Z,99261.20
2023-01-25T22:32:23.812Z,99253.80
2023-01-25T22:35:30.117Z,99251.60
2023-01-25T22:38:36.463Z,99251.20
2023-01-25T22:41:43.226Z,99255.40
2023-01-25T22:44:49.620Z,99248.60
2023-01-25T22:47:55.916Z,99241.20
2023-01-25T22:51:06.855Z,99239.20
2023-01-25T22:54:13.544Z,99238.20
2023-01-25T22:57:21.153Z,99237.60
2023-01-25T23:00:27.370Z,99238.60
2023-01-25T23:03:34.344Z,99233.20
2023-01-25T23:07:12.854Z,99224.80
2023-01-25T23:10:58.309Z,99213.80
2023-01-25T23:14:31.814Z,99214.40
2023-01-25T23:17:55.950Z,99208.80
2023-01-25T23:21:05.387Z,99208.20
2023-01-25T23:24:13.084Z,99207.80
2023-01-25T23:27:19.704Z,99199.20
2023-01-25T23:30:26.303Z,99194.60
2023-01-25T23:33:33.751Z,99198.20
2023-01-25T23:36:42.466Z,99191.60
2023-01-25T23:39:49.131Z,99184.00
2023-01-25T23:42:57.845Z,99185.00
2023-01-25T23:46:04.512Z,99173.80
2023-01-25T23:49:11.127Z,99166.40
2023-01-25T23:52:17.476Z,99165.00
2023-01-25T23:55:23.788Z,99159.40
2023-01-25T23:58:30.711Z,99153.40
